sensor_id;sensor_type;location;lat;lon;timestamp;P1;durP1;ratioP1;P2;durP2;ratioP2
49252;SDS011;35103;47.952;-1.502;2022-10-28T00:01:11;523.58;;;482.98;;
49252;SDS011;35103;47.952;-1.502;2022-10-28T00:03:38;537.17;;;496.92;;
49252;SDS011;35103;47.952;-1.502;2022-10-28T00:06:06;550.67;;;508.23;;
49252;SDS011;35103;47.952;-1.502;2022-10-28T00:08:34;514.13;;;475.90;;
49252;SDS011;35103;47.952;-1.502;2022-10-28T00:11:00;513.03;;;475.13;;
49252;SDS011;35103;47.952;-1.502;2022-10-28T00:13:34;531.70;;;492.02;;
49252;SDS011;35103;47.952;-1.502;2022-10-28T00:16:07;517.85;;;477.65;;
49252;SDS011;35103;47.952;-1.502;2022-10-28T00:18:44;688.72;;;626.75;;
49252;SDS011;35103;47.952;-1.502;2022-10-28T00:21:15;527.53;;;487.23;;
49252;SDS011;35103;47.952;-1.502;2022-10-28T00:23:43;505.33;;;467.92;;
49252;SDS011;35103;47.952;-1.502;2022-10-28T00:26:21;522.28;;;483.42;;
49252;SDS011;35103;47.952;-1.502;2022-10-28T00:28:55;563.78;;;521.30;;
49252;SDS011;35103;47.952;-1.502;2022-10-28T00:31:24;525.47;;;485.27;;
49252;SDS011;35103;47.952;-1.502;2022-10-28T00:33:50;523.95;;;484.67;;
49252;SDS011;35103;47.952;-1.502;2022-10-28T00:38:44;583.58;;;535.42;;
49252;SDS011;35103;47.952;-1.502;2022-10-28T00:41:11;546.78;;;504.52;;
49252;SDS011;35103;47.952;-1.502;2022-10-28T00:43:49;607.30;;;559.05;;
49252;SDS011;35103;47.952;-1.502;2022-10-28T00:46:24;476.23;;;440.30;;
49252;SDS011;35103;47.952;-1.502;2022-10-28T00:49:02;551.33;;;508.58;;
49252;SDS011;35103;47.952;-1.502;2022-10-28T00:51:28;496.38;;;460.80;;
49252;SDS011;35103;47.952;-1.502;2022-10-28T00:53:57;583.83;;;536.92;;
49252;SDS011;35103;47.952;-1.502;2022-10-28T00:56:24;493.67;;;455.27;;
49252;SDS011;35103;47.952;-1.502;2022-10-28T00:58:53;521.85;;;483.60;;
49252;SDS011;35103;47.952;-1.502;2022-10-28T01:01:22;565.20;;;520.47;;
49252;SDS011;35103;47.952;-1.502;2022-10-28T01:03:48;518.10;;;478.80;;
49252;SDS011;35103;47.952;-1.502;2022-10-28T01:06:14;506.08;;;467.23;;
49252;SDS011;35103;47.952;-1.502;2022-10-28T01:08:40;502.00;;;464.63;;
49252;SDS011;35103;47.952;-1.502;2022-10-28T01:22:24;504.98;;;465.95;;
49252;SDS011;35103;47.952;-1.502;2022-10-28T01:33:31;550.65;;;507.40;;
49252;SDS011;35103;47.952;-1.502;2022-10-28T01:36:26;501.70;;;463.05;;
49252;SDS011;35103;47.952;-1.502;2022-10-28T01:41:50;609.20;;;557.67;;
49252;SDS011;35103;47.952;-1.502;2022-10-28T01:47:08;663.60;;;602.15;;
49252;SDS011;35103;47.952;-1.502;2022-10-28T01:49:48;530.00;;;489.15;;
49252;SDS011;35103;47.952;-1.502;2022-10-28T01:52:24;599.08;;;547.00;;
49252;SDS011;35103;47.952;-1.502;2022-10-28T01:54:53;634.80;;;579.67;;
49252;SDS011;35103;47.952;-1.502;2022-10-28T01:57:24;598.05;;;551.90;;
49252;SDS011;35103;47.952;-1.502;2022-10-28T01:59:52;642.75;;;588.85;;
49252;SDS011;35103;47.952;-1.502;2022-10-28T02:02:17;646.55;;;590.53;;
49252;SDS011;35103;47.952;-1.502;2022-10-28T02:04:43;636.63;;;581.88;;
49252;SDS011;35103;47.952;-1.502;2022-10-28T02:07:08;629.95;;;577.97;;
49252;SDS011;35103;47.952;-1.502;2022-10-28T02:12:27;623.58;;;569.50;;
49252;SDS011;35103;47.952;-1.502;2022-10-28T02:23:21;582.20;;;534.25;;
49252;SDS011;35103;47.952;-1.502;2022-10-28T02:26:04;614.95;;;563.92;;
49252;SDS011;35103;47.952;-1.502;2022-10-28T02:29:03;631.53;;;576.60;;
49252;SDS011;35103;47.952;-1.502;2022-10-28T02:31:36;591.13;;;542.33;;
49252;SDS011;35103;47.952;-1.502;2022-10-28T02:34:10;577.95;;;532.92;;
49252;SDS011;35103;47.952;-1.502;2022-10-28T02:36:43;584.17;;;540.00;;
49252;SDS011;35103;47.952;-1.502;2022-10-28T02:39:12;586.35;;;540.88;;
49252;SDS011;35103;47.952;-1.502;2022-10-28T02:41:43;650.08;;;593.17;;
49252;SDS011;35103;47.952;-1.502;2022-10-28T02:44:23;613.58;;;564.67;;
49252;SDS011;35103;47.952;-1.502;2022-10-28T02:46:52;587.33;;;541.53;;
49252;SDS011;35103;47.952;-1.502;2022-10-28T02:49:21;584.30;;;539.35;;
49252;SDS011;35103;47.952;-1.502;2022-10-28T02:51:50;603.63;;;555.20;;
49252;SDS011;35103;47.952;-1.502;2022-10-28T02:59:30;704.85;;;640.42;;
49252;SDS011;35103;47.952;-1.502;2022-10-28T03:01:56;604.67;;;557.88;;
49252;SDS011;35103;47.952;-1.502;2022-10-28T03:04:21;650.83;;;595.90;;
49252;SDS011;35103;47.952;-1.502;2022-10-28T03:06:47;648.20;;;591.17;;
49252;SDS011;35103;47.952;-1.502;2022-10-28T03:09:12;631.33;;;580.50;;
49252;SDS011;35103;47.952;-1.502;2022-10-28T03:11:38;599.45;;;554.08;;
49252;SDS011;35103;47.952;-1.502;2022-10-28T03:14:04;603.38;;;556.33;;
49252;SDS011;35103;47.952;-1.502;2022-10-28T03:16:29;629.45;;;579.95;;
49252;SDS011;35103;47.952;-1.502;2022-10-28T03:18:55;594.90;;;547.85;;
49252;SDS011;35103;47.952;-1.502;2022-10-28T03:21:20;631.25;;;581.78;;
49252;SDS011;35103;47.952;-1.502;2022-10-28T03:23:46;636.63;;;585.33;;
49252;SDS011;35103;47.952;-1.502;2022-10-28T03:26:12;593.53;;;548.25;;
49252;SDS011;35103;47.952;-1.502;2022-10-28T03:28:37;620.97;;;573.58;;
49252;SDS011;35103;47.952;-1.502;2022-10-28T03:31:03;659.42;;;602.40;;
49252;SDS011;35103;47.952;-1.502;2022-10-28T03:33:30;588.17;;;539.42;;
49252;SDS011;35103;47.952;-1.502;2022-10-28T03:35:56;581.50;;;534.78;;
49252;SDS011;35103;47.952;-1.502;2022-10-28T03:38:21;653.45;;;601.67;;
49252;SDS011;35103;47.952;-1.502;2022-10-28T03:40:47;614.13;;;566.78;;
49252;SDS011;35103;47.952;-1.502;2022-10-28T03:43:14;580.38;;;534.47;;
49252;SDS011;35103;47.952;-1.502;2022-10-28T03:45:40;597.45;;;549.97;;
49252;SDS011;35103;47.952;-1.502;2022-10-28T03:48:05;633.53;;;582.67;;
49252;SDS011;35103;47.952;-1.502;2022-10-28T03:50:31;619.97;;;572.67;;
49252;SDS011;35103;47.952;-1.502;2022-10-28T03:52:56;632.35;;;582.60;;
49252;SDS011;35103;47.952;-1.502;2022-10-28T03:55:22;623.53;;;575.88;;
49252;SDS011;35103;47.952;-1.502;2022-10-28T03:57:48;620.85;;;574.83;;
49252;SDS011;35103;47.952;-1.502;2022-10-28T04:00:14;636.28;;;588.03;;
49252;SDS011;35103;47.952;-1.502;2022-10-28T04:02:40;627.08;;;576.80;;
49252;SDS011;35103;47.952;-1.502;2022-10-28T04:05:06;567.53;;;524.72;;
49252;SDS011;35103;47.952;-1.502;2022-10-28T04:07:32;658.35;;;601.53;;
49252;SDS011;35103;47.952;-1.502;2022-10-28T04:09:57;656.60;;;602.83;;
49252;SDS011;35103;47.952;-1.502;2022-10-28T04:12:23;620.53;;;574.25;;
49252;SDS011;35103;47.952;-1.502;2022-10-28T04:14:48;637.33;;;584.38;;
49252;SDS011;35103;47.952;-1.502;2022-10-28T04:17:14;559.53;;;516.38;;
49252;SDS011;35103;47.952;-1.502;2022-10-28T04:19:39;653.25;;;600.55;;
49252;SDS011;35103;47.952;-1.502;2022-10-28T04:22:05;579.45;;;535.70;;
49252;SDS011;35103;47.952;-1.502;2022-10-28T04:24:30;550.30;;;506.95;;
49252;SDS011;35103;47.952;-1.502;2022-10-28T04:26:56;609.42;;;562.95;;
49252;SDS011;35103;47.952;-1.502;2022-10-28T04:29:22;655.40;;;603.92;;
49252;SDS011;35103;47.952;-1.502;2022-10-28T04:31:47;717.22;;;651.50;;
49252;SDS011;35103;47.952;-1.502;2022-10-28T04:34:13;565.45;;;522.85;;
49252;SDS011;35103;47.952;-1.502;2022-10-28T04:36:38;576.20;;;532.20;;
49252;SDS011;35103;47.952;-1.502;2022-10-28T04:39:04;623.97;;;572.85;;
49252;SDS011;35103;47.952;-1.502;2022-10-28T04:41:29;655.45;;;602.65;;
49252;SDS011;35103;47.952;-1.502;2022-10-28T04:43:55;632.03;;;581.40;;
49252;SDS011;35103;47.952;-1.502;2022-10-28T04:46:21;570.67;;;524.75;;
49252;SDS011;35103;47.952;-1.502;2022-10-28T04:48:46;581.40;;;536.35;;
49252;SDS011;35103;47.952;-1.502;2022-10-28T04:51:12;574.92;;;531.03;;
49252;SDS011;35103;47.952;-1.502;2022-10-28T04:53:38;585.88;;;540.67;;
49252;SDS011;35103;47.952;-1.502;2022-10-28T04:56:03;586.92;;;541.97;;
49252;SDS011;35103;47.952;-1.502;2022-10-28T04:58:29;566.05;;;521.17;;
49252;SDS011;35103;47.952;-1.502;2022-10-28T05:00:55;603.85;;;557.63;;
49252;SDS011;35103;47.952;-1.502;2022-10-28T05:03:20;627.35;;;578.67;;
49252;SDS011;35103;47.952;-1.502;2022-10-28T05:05:46;563.47;;;520.70;;
49252;SDS011;35103;47.952;-1.502;2022-10-28T05:08:12;627.35;;;577.95;;
49252;SDS011;35103;47.952;-1.502;2022-10-28T05:10:38;602.63;;;557.28;;
49252;SDS011;35103;47.952;-1.502;2022-10-28T05:13:03;624.88;;;577.85;;
49252;SDS011;35103;47.952;-1.502;2022-10-28T05:15:29;604.97;;;556.95;;
49252;SDS011;35103;47.952;-1.502;2022-10-28T05:17:54;622.65;;;571.70;;
49252;SDS011;35103;47.952;-1.502;2022-10-28T05:20:20;547.53;;;507.77;;
49252;SDS011;35103;47.952;-1.502;2022-10-28T05:22:49;640.92;;;588.13;;
49252;SDS011;35103;47.952;-1.502;2022-10-28T05:25:16;598.08;;;548.38;;
49252;SDS011;35103;47.952;-1.502;2022-10-28T05:27:42;605.63;;;556.40;;
49252;SDS011;35103;47.952;-1.502;2022-10-28T05:30:08;570.28;;;525.97;;
49252;SDS011;35103;47.952;-1.502;2022-10-28T05:32:34;589.90;;;541.63;;
49252;SDS011;35103;47.952;-1.502;2022-10-28T05:35:00;651.50;;;598.70;;
49252;SDS011;35103;47.952;-1.502;2022-10-28T05:37:25;605.60;;;556.58;;
49252;SDS011;35103;47.952;-1.502;2022-10-28T05:39:51;575.03;;;528.92;;
49252;SDS011;35103;47.952;-1.502;2022-10-28T05:42:16;547.80;;;506.45;;
49252;SDS011;35103;47.952;-1.502;2022-10-28T05:44:42;562.60;;;520.90;;
49252;SDS011;35103;47.952;-1.502;2022-10-28T05:47:07;559.15;;;517.58;;
49252;SDS011;35103;47.952;-1.502;2022-10-28T05:49:33;590.92;;;544.17;;
49252;SDS011;35103;47.952;-1.502;2022-10-28T05:51:59;646.83;;;589.10;;
49252;SDS011;35103;47.952;-1.502;2022-10-28T05:54:24;545.92;;;505.25;;
49252;SDS011;35103;47.952;-1.502;2022-10-28T05:56:50;577.42;;;533.78;;
49252;SDS011;35103;47.952;-1.502;2022-10-28T05:59:16;675.83;;;618.83;;
49252;SDS011;35103;47.952;-1.502;2022-10-28T06:01:41;771.88;;;698.85;;
49252;SDS011;35103;47.952;-1.502;2022-10-28T06:04:07;558.05;;;514.42;;
49252;SDS011;35103;47.952;-1.502;2022-10-28T06:06:32;567.03;;;523.88;;
49252;SDS011;35103;47.952;-1.502;2022-10-28T06:08:58;804.80;;;685.90;;
49252;SDS011;35103;47.952;-1.502;2022-10-28T06:11:23;613.05;;;563.17;;
49252;SDS011;35103;47.952;-1.502;2022-10-28T06:13:49;761.42;;;683.58;;
49252;SDS011;35103;47.952;-1.502;2022-10-28T06:16:14;565.90;;;520.83;;
49252;SDS011;35103;47.952;-1.502;2022-10-28T06:18:40;527.67;;;488.05;;
49252;SDS011;35103;47.952;-1.502;2022-10-28T06:21:05;632.00;;;576.40;;
49252;SDS011;35103;47.952;-1.502;2022-10-28T06:23:31;581.08;;;536.35;;
49252;SDS011;35103;47.952;-1.502;2022-10-28T06:25:57;578.17;;;533.08;;
49252;SDS011;35103;47.952;-1.502;2022-10-28T06:28:24;655.28;;;598.72;;
49252;SDS011;35103;47.952;-1.502;2022-10-28T06:30:50;699.35;;;636.35;;
49252;SDS011;35103;47.952;-1.502;2022-10-28T06:33:16;602.30;;;555.25;;
49252;SDS011;35103;47.952;-1.502;2022-10-28T06:35:42;559.03;;;514.47;;
49252;SDS011;35103;47.952;-1.502;2022-10-28T06:38:07;598.90;;;547.90;;
49252;SDS011;35103;47.952;-1.502;2022-10-28T06:40:33;572.25;;;525.80;;
49252;SDS011;35103;47.952;-1.502;2022-10-28T06:42:59;555.13;;;513.03;;
49252;SDS011;35103;47.952;-1.502;2022-10-28T06:45:27;568.03;;;524.55;;
49252;SDS011;35103;47.952;-1.502;2022-10-28T06:47:56;568.75;;;525.38;;
49252;SDS011;35103;47.952;-1.502;2022-10-28T06:50:23;556.30;;;514.10;;
49252;SDS011;35103;47.952;-1.502;2022-10-28T06:52:49;569.00;;;526.15;;
49252;SDS011;35103;47.952;-1.502;2022-10-28T06:55:15;550.17;;;508.95;;
49252;SDS011;35103;47.952;-1.502;2022-10-28T06:57:40;549.83;;;508.38;;
49252;SDS011;35103;47.952;-1.502;2022-10-28T07:00:06;898.70;;;798.20;;
49252;SDS011;35103;47.952;-1.502;2022-10-28T07:02:32;569.65;;;525.75;;
49252;SDS011;35103;47.952;-1.502;2022-10-28T07:04:58;527.50;;;487.58;;
49252;SDS011;35103;47.952;-1.502;2022-10-28T07:07:24;549.90;;;508.27;;
49252;SDS011;35103;47.952;-1.502;2022-10-28T07:09:49;686.97;;;624.45;;
49252;SDS011;35103;47.952;-1.502;2022-10-28T07:12:15;778.60;;;700.10;;
49252;SDS011;35103;47.952;-1.502;2022-10-28T07:14:40;563.95;;;520.78;;
49252;SDS011;35103;47.952;-1.502;2022-10-28T07:17:06;667.42;;;606.45;;
49252;SDS011;35103;47.952;-1.502;2022-10-28T07:19:31;589.40;;;543.97;;
49252;SDS011;35103;47.952;-1.502;2022-10-28T07:21:57;632.88;;;581.63;;
49252;SDS011;35103;47.952;-1.502;2022-10-28T07:24:22;601.65;;;553.15;;
49252;SDS011;35103;47.952;-1.502;2022-10-28T07:26:48;625.30;;;568.28;;
49252;SDS011;35103;47.952;-1.502;2022-10-28T07:29:14;588.08;;;540.05;;
49252;SDS011;35103;47.952;-1.502;2022-10-28T07:31:40;723.03;;;651.45;;
49252;SDS011;35103;47.952;-1.502;2022-10-28T07:34:06;671.03;;;613.15;;
49252;SDS011;35103;47.952;-1.502;2022-10-28T07:36:32;695.28;;;630.88;;
49252;SDS011;35103;47.952;-1.502;2022-10-28T07:38:57;686.65;;;624.97;;
49252;SDS011;35103;47.952;-1.502;2022-10-28T07:41:23;586.20;;;538.20;;
49252;SDS011;35103;47.952;-1.502;2022-10-28T07:43:49;599.67;;;554.20;;
49252;SDS011;35103;47.952;-1.502;2022-10-28T07:46:15;629.17;;;578.47;;
49252;SDS011;35103;47.952;-1.502;2022-10-28T07:48:41;539.53;;;498.20;;
49252;SDS011;35103;47.952;-1.502;2022-10-28T07:51:07;632.88;;;581.55;;
49252;SDS011;35103;47.952;-1.502;2022-10-28T07:53:35;645.90;;;593.50;;
49252;SDS011;35103;47.952;-1.502;2022-10-28T07:56:02;646.40;;;590.25;;
49252;SDS011;35103;47.952;-1.502;2022-10-28T07:58:29;649.15;;;593.78;;
49252;SDS011;35103;47.952;-1.502;2022-10-28T08:00:55;638.63;;;587.65;;
49252;SDS011;35103;47.952;-1.502;2022-10-28T08:03:25;728.33;;;661.45;;
49252;SDS011;35103;47.952;-1.502;2022-10-28T08:05:57;624.00;;;576.70;;
49252;SDS011;35103;47.952;-1.502;2022-10-28T08:08:24;617.10;;;565.45;;
49252;SDS011;35103;47.952;-1.502;2022-10-28T08:10:50;639.38;;;590.15;;
49252;SDS011;35103;47.952;-1.502;2022-10-28T08:13:15;602.85;;;554.40;;
49252;SDS011;35103;47.952;-1.502;2022-10-28T08:15:41;596.28;;;551.47;;
49252;SDS011;35103;47.952;-1.502;2022-10-28T08:18:06;677.55;;;619.22;;
49252;SDS011;35103;47.952;-1.502;2022-10-28T08:20:32;603.78;;;557.10;;
49252;SDS011;35103;47.952;-1.502;2022-10-28T08:22:57;625.20;;;576.97;;
49252;SDS011;35103;47.952;-1.502;2022-10-28T08:25:23;619.08;;;570.47;;
49252;SDS011;35103;47.952;-1.502;2022-10-28T08:27:49;627.15;;;579.08;;
49252;SDS011;35103;47.952;-1.502;2022-10-28T08:30:14;641.33;;;590.97;;
49252;SDS011;35103;47.952;-1.502;2022-10-28T08:32:40;671.83;;;616.15;;
49252;SDS011;35103;47.952;-1.502;2022-10-28T08:35:05;651.70;;;601.17;;
49252;SDS011;35103;47.952;-1.502;2022-10-28T08:37:31;635.97;;;585.85;;
49252;SDS011;35103;47.952;-1.502;2022-10-28T08:39:57;630.83;;;583.97;;
49252;SDS011;35103;47.952;-1.502;2022-10-28T08:45:19;635.15;;;587.63;;
49252;SDS011;35103;47.952;-1.502;2022-10-28T08:47:54;661.03;;;608.72;;
49252;SDS011;35103;47.952;-1.502;2022-10-28T08:50:44;627.88;;;580.45;;
49252;SDS011;35103;47.952;-1.502;2022-10-28T08:55:49;630.10;;;577.00;;
49252;SDS011;35103;47.952;-1.502;2022-10-28T08:58:21;609.05;;;560.80;;
49252;SDS011;35103;47.952;-1.502;2022-10-28T09:00:51;669.22;;;612.60;;
49252;SDS011;35103;47.952;-1.502;2022-10-28T09:03:29;619.33;;;569.53;;
49252;SDS011;35103;47.952;-1.502;2022-10-28T09:06:01;624.58;;;575.55;;
49252;SDS011;35103;47.952;-1.502;2022-10-28T09:08:30;653.53;;;601.80;;
49252;SDS011;35103;47.952;-1.502;2022-10-28T09:11:05;630.28;;;580.42;;
49252;SDS011;35103;47.952;-1.502;2022-10-28T09:16:22;671.05;;;615.22;;
49252;SDS011;35103;47.952;-1.502;2022-10-28T09:19:07;667.58;;;611.50;;
49252;SDS011;35103;47.952;-1.502;2022-10-28T09:21:49;663.97;;;609.58;;
49252;SDS011;35103;47.952;-1.502;2022-10-28T09:24:20;637.85;;;587.92;;
49252;SDS011;35103;47.952;-1.502;2022-10-28T09:32:07;610.72;;;563.70;;
49252;SDS011;35103;47.952;-1.502;2022-10-28T09:37:29;729.22;;;665.70;;
49252;SDS011;35103;47.952;-1.502;2022-10-28T09:40:02;663.67;;;609.25;;
49252;SDS011;35103;47.952;-1.502;2022-10-28T09:42:44;687.70;;;635.17;;
49252;SDS011;35103;47.952;-1.502;2022-10-28T09:45:26;702.47;;;645.60;;
49252;SDS011;35103;47.952;-1.502;2022-10-28T09:48:02;728.03;;;668.20;;
49252;SDS011;35103;47.952;-1.502;2022-10-28T09:50:43;675.72;;;624.53;;
49252;SDS011;35103;47.952;-1.502;2022-10-28T09:53:13;730.55;;;669.25;;
49252;SDS011;35103;47.952;-1.502;2022-10-28T09:55:49;717.95;;;659.28;;
49252;SDS011;35103;47.952;-1.502;2022-10-28T09:58:14;732.60;;;674.13;;
49252;SDS011;35103;47.952;-1.502;2022-10-28T10:00:42;696.22;;;642.65;;
49252;SDS011;35103;47.952;-1.502;2022-10-28T10:03:07;705.25;;;651.42;;
49252;SDS011;35103;47.952;-1.502;2022-10-28T10:05:36;702.60;;;647.90;;
49252;SDS011;35103;47.952;-1.502;2022-10-28T10:08:06;733.72;;;672.22;;
49252;SDS011;35103;47.952;-1.502;2022-10-28T10:13:09;711.65;;;655.88;;
49252;SDS011;35103;47.952;-1.502;2022-10-28T10:15:38;716.58;;;660.50;;
49252;SDS011;35103;47.952;-1.502;2022-10-28T10:18:14;732.40;;;676.35;;
49252;SDS011;35103;47.952;-1.502;2022-10-28T10:20:47;695.40;;;638.28;;
49252;SDS011;35103;47.952;-1.502;2022-10-28T10:23:21;681.95;;;628.45;;
49252;SDS011;35103;47.952;-1.502;2022-10-28T10:25:58;693.63;;;636.63;;
49252;SDS011;35103;47.952;-1.502;2022-10-28T10:28:33;718.50;;;659.97;;
49252;SDS011;35103;47.952;-1.502;2022-10-28T10:31:03;728.10;;;669.20;;
49252;SDS011;35103;47.952;-1.502;2022-10-28T10:33:34;674.88;;;621.17;;
49252;SDS011;35103;47.952;-1.502;2022-10-28T10:36:03;737.88;;;676.92;;
49252;SDS011;35103;47.952;-1.502;2022-10-28T10:38:46;694.28;;;640.72;;
49252;SDS011;35103;47.952;-1.502;2022-10-28T10:44:22;705.58;;;651.38;;
49252;SDS011;35103;47.952;-1.502;2022-10-28T10:49:23;769.40;;;701.92;;
49252;SDS011;35103;47.952;-1.502;2022-10-28T10:51:49;739.85;;;679.35;;
49252;SDS011;35103;47.952;-1.502;2022-10-28T10:54:16;675.22;;;620.75;;
49252;SDS011;35103;47.952;-1.502;2022-10-28T10:56:44;658.83;;;607.90;;
49252;SDS011;35103;47.952;-1.502;2022-10-28T11:01:52;696.78;;;639.90;;
49252;SDS011;35103;47.952;-1.502;2022-10-28T11:04:20;734.25;;;666.20;;
49252;SDS011;35103;47.952;-1.502;2022-10-28T11:06:48;737.22;;;671.92;;
49252;SDS011;35103;47.952;-1.502;2022-10-28T11:09:28;800.28;;;718.28;;
49252;SDS011;35103;47.952;-1.502;2022-10-28T11:11:58;704.55;;;646.33;;
49252;SDS011;35103;47.952;-1.502;2022-10-28T11:14:25;695.83;;;638.47;;
49252;SDS011;35103;47.952;-1.502;2022-10-28T11:16:53;690.25;;;635.97;;
49252;SDS011;35103;47.952;-1.502;2022-10-28T11:19:27;667.50;;;613.47;;
49252;SDS011;35103;47.952;-1.502;2022-10-28T11:24:51;734.90;;;672.78;;
49252;SDS011;35103;47.952;-1.502;2022-10-28T11:29:54;710.83;;;651.35;;
49252;SDS011;35103;47.952;-1.502;2022-10-28T11:34:57;833.75;;;749.95;;
49252;SDS011;35103;47.952;-1.502;2022-10-28T11:46:01;644.28;;;593.17;;
49252;SDS011;35103;47.952;-1.502;2022-10-28T11:54:38;665.05;;;613.40;;
49252;SDS011;35103;47.952;-1.502;2022-10-28T11:57:10;785.80;;;717.75;;
49252;SDS011;35103;47.952;-1.502;2022-10-28T12:02:28;663.08;;;612.22;;
49252;SDS011;35103;47.952;-1.502;2022-10-28T12:05:10;656.75;;;604.13;;
49252;SDS011;35103;47.952;-1.502;2022-10-28T12:07:52;752.78;;;690.22;;
49252;SDS011;35103;47.952;-1.502;2022-10-28T12:10:51;697.80;;;641.72;;
49252;SDS011;35103;47.952;-1.502;2022-10-28T12:13:43;732.88;;;670.33;;
49252;SDS011;35103;47.952;-1.502;2022-10-28T12:24:02;781.20;;;712.28;;
49252;SDS011;35103;47.952;-1.502;2022-10-28T12:26:40;851.08;;;770.40;;
49252;SDS011;35103;47.952;-1.502;2022-10-28T12:29:29;754.13;;;690.17;;
49252;SDS011;35103;47.952;-1.502;2022-10-28T12:31:59;862.72;;;777.45;;
49252;SDS011;35103;47.952;-1.502;2022-10-28T12:34:52;832.78;;;751.72;;
49252;SDS011;35103;47.952;-1.502;2022-10-28T12:40:23;746.35;;;685.75;;
49252;SDS011;35103;47.952;-1.502;2022-10-28T12:42:59;841.83;;;766.15;;
49252;SDS011;35103;47.952;-1.502;2022-10-28T12:45:28;756.15;;;693.58;;
49252;SDS011;35103;47.952;-1.502;2022-10-28T12:48:00;772.03;;;709.67;;
49252;SDS011;35103;47.952;-1.502;2022-10-28T12:53:28;741.90;;;680.33;;
49252;SDS011;35103;47.952;-1.502;2022-10-28T12:56:17;758.03;;;694.33;;
49252;SDS011;35103;47.952;-1.502;2022-10-28T12:58:52;784.55;;;716.75;;
49252;SDS011;35103;47.952;-1.502;2022-10-28T13:01:28;775.95;;;711.30;;
49252;SDS011;35103;47.952;-1.502;2022-10-28T13:03:56;810.25;;;740.97;;
49252;SDS011;35103;47.952;-1.502;2022-10-28T13:19:52;805.63;;;733.30;;
49252;SDS011;35103;47.952;-1.502;2022-10-28T13:28:05;754.20;;;692.22;;
49252;SDS011;35103;47.952;-1.502;2022-10-28T13:30:54;742.90;;;684.10;;
49252;SDS011;35103;47.952;-1.502;2022-10-28T13:33:23;775.90;;;710.50;;
49252;SDS011;35103;47.952;-1.502;2022-10-28T13:35:50;795.08;;;723.50;;
49252;SDS011;35103;47.952;-1.502;2022-10-28T13:38:19;822.45;;;753.50;;
49252;SDS011;35103;47.952;-1.502;2022-10-28T13:49:35;771.75;;;708.60;;
49252;SDS011;35103;47.952;-1.502;2022-10-28T13:57:27;753.50;;;695.83;;
49252;SDS011;35103;47.952;-1.502;2022-10-28T14:00:08;705.80;;;650.28;;
49252;SDS011;35103;47.952;-1.502;2022-10-28T14:02:55;737.63;;;679.10;;
49252;SDS011;35103;47.952;-1.502;2022-10-28T14:05:24;839.13;;;764.38;;
49252;SDS011;35103;47.952;-1.502;2022-10-28T14:07:59;701.53;;;648.15;;
49252;SDS011;35103;47.952;-1.502;2022-10-28T14:10:57;760.65;;;697.33;;
49252;SDS011;35103;47.952;-1.502;2022-10-28T14:13:34;694.80;;;641.17;;
49252;SDS011;35103;47.952;-1.502;2022-10-28T14:18:56;746.65;;;685.55;;
49252;SDS011;35103;47.952;-1.502;2022-10-28T14:21:38;751.92;;;690.10;;
49252;SDS011;35103;47.952;-1.502;2022-10-28T14:24:29;729.67;;;669.03;;
49252;SDS011;35103;47.952;-1.502;2022-10-28T14:29:34;759.65;;;698.80;;
49252;SDS011;35103;47.952;-1.502;2022-10-28T14:34:54;723.50;;;667.72;;
49252;SDS011;35103;47.952;-1.502;2022-10-28T14:48:49;673.95;;;623.28;;
49252;SDS011;35103;47.952;-1.502;2022-10-28T14:51:24;722.78;;;663.60;;
49252;SDS011;35103;47.952;-1.502;2022-10-28T14:54:12;710.45;;;655.75;;
49252;SDS011;35103;47.952;-1.502;2022-10-28T14:56:41;711.55;;;656.75;;
49252;SDS011;35103;47.952;-1.502;2022-10-28T14:59:24;700.50;;;646.40;;
49252;SDS011;35103;47.952;-1.502;2022-10-28T15:04:55;736.28;;;680.00;;
49252;SDS011;35103;47.952;-1.502;2022-10-28T15:07:25;695.03;;;642.38;;
49252;SDS011;35103;47.952;-1.502;2022-10-28T15:09:50;753.63;;;693.70;;
49252;SDS011;35103;47.952;-1.502;2022-10-28T15:12:16;697.88;;;645.65;;
49252;SDS011;35103;47.952;-1.502;2022-10-28T15:14:49;716.35;;;659.95;;
49252;SDS011;35103;47.952;-1.502;2022-10-28T15:17:19;670.03;;;618.83;;
49252;SDS011;35103;47.952;-1.502;2022-10-28T15:19:47;717.85;;;662.03;;
49252;SDS011;35103;47.952;-1.502;2022-10-28T15:22:22;756.47;;;696.10;;
49252;SDS011;35103;47.952;-1.502;2022-10-28T15:24:59;740.25;;;683.45;;
49252;SDS011;35103;47.952;-1.502;2022-10-28T15:27:27;727.42;;;667.58;;
49252;SDS011;35103;47.952;-1.502;2022-10-28T15:29:54;683.97;;;632.67;;
49252;SDS011;35103;47.952;-1.502;2022-10-28T15:34:45;734.67;;;679.25;;
49252;SDS011;35103;47.952;-1.502;2022-10-28T15:37:18;751.40;;;691.38;;
49252;SDS011;35103;47.952;-1.502;2022-10-28T15:39:47;690.73;;;638.90;;
49252;SDS011;35103;47.952;-1.502;2022-10-28T15:42:28;729.38;;;673.30;;
49252;SDS011;35103;47.952;-1.502;2022-10-28T15:45:00;749.80;;;688.13;;
49252;SDS011;35103;47.952;-1.502;2022-10-28T15:47:29;710.53;;;656.20;;
49252;SDS011;35103;47.952;-1.502;2022-10-28T15:52:35;716.15;;;661.58;;
49252;SDS011;35103;47.952;-1.502;2022-10-28T15:55:24;711.95;;;656.97;;
49252;SDS011;35103;47.952;-1.502;2022-10-28T15:57:55;719.47;;;664.08;;
49252;SDS011;35103;47.952;-1.502;2022-10-28T16:00:23;728.95;;;674.88;;
49252;SDS011;35103;47.952;-1.502;2022-10-28T16:02:50;746.85;;;684.20;;
49252;SDS011;35103;47.952;-1.502;2022-10-28T16:08:22;700.80;;;647.00;;
49252;SDS011;35103;47.952;-1.502;2022-10-28T16:10:53;743.88;;;684.00;;
49252;SDS011;35103;47.952;-1.502;2022-10-28T16:13:28;764.03;;;703.25;;
49252;SDS011;35103;47.952;-1.502;2022-10-28T16:18:31;688.00;;;635.55;;
49252;SDS011;35103;47.952;-1.502;2022-10-28T16:21:02;736.30;;;679.35;;
49252;SDS011;35103;47.952;-1.502;2022-10-28T16:23:31;726.08;;;671.22;;
49252;SDS011;35103;47.952;-1.502;2022-10-28T16:26:04;716.55;;;660.33;;
49252;SDS011;35103;47.952;-1.502;2022-10-28T16:28:30;706.97;;;653.55;;
49252;SDS011;35103;47.952;-1.502;2022-10-28T16:30:57;722.35;;;667.35;;
49252;SDS011;35103;47.952;-1.502;2022-10-28T16:33:26;700.75;;;647.17;;
49252;SDS011;35103;47.952;-1.502;2022-10-28T16:35:56;726.42;;;670.47;;
49252;SDS011;35103;47.952;-1.502;2022-10-28T16:38:22;728.70;;;673.10;;
49252;SDS011;35103;47.952;-1.502;2022-10-28T16:40:47;737.22;;;681.88;;
49252;SDS011;35103;47.952;-1.502;2022-10-28T16:43:17;744.63;;;685.78;;
49252;SDS011;35103;47.952;-1.502;2022-10-28T16:45:48;733.35;;;677.83;;
49252;SDS011;35103;47.952;-1.502;2022-10-28T16:48:15;726.05;;;671.38;;
49252;SDS011;35103;47.952;-1.502;2022-10-28T16:50:43;735.42;;;679.72;;
49252;SDS011;35103;47.952;-1.502;2022-10-28T16:53:12;748.13;;;689.55;;
49252;SDS011;35103;47.952;-1.502;2022-10-28T16:55:38;740.00;;;684.15;;